Time;durP1;ratioP1;P1;durP2;ratioP2;P2;SDS_P1;SDS_P2;PMS_P1;PMS_P2;Temp;Humidity;BMP_temperature;BMP_pressure;BME280_temperature;BME280_humidity;BME280_pressure;Samples;Min_cycle;Max_cycle;Signal;HPM_P1;HPM_P2
2022/10/14 00:02:55;;;;;;;1.90;0.60;;;;;;;;;;10355066;28;20053;-79
2022/10/14 00:07:58;;;;;;;2.83;0.88;;;;;;;;;;10337512;28;20130;-78
2022/10/14 00:13:01;;;;;;;1.67;1.00;;;;;;;;;;10354855;28;20040;-78
2022/10/14 00:18:06;;;;;;;2.13;1.00;;;;;;;;;;10354139;28;20729;-79
2022/10/14 00:23:09;;;;;;;4.60;0.95;;;;;;;;;;10354551;28;20501;-77
2022/10/14 00:28:12;;;;;;;2.50;0.88;;;;;;;;;;10336796;28;20049;-78
2022/10/14 00:33:17;;;;;;;1.83;0.77;;;;;;;;;;10352831;28;20042;-80
2022/10/14 00:38:20;;;;;;;1.45;0.77;;;;;;;;;;10353311;28;20061;-80
2022/10/14 00:43:25;;;;;;;1.00;0.73;;;;;;;;;;10336343;28;20438;-80
2022/10/14 00:48:30;;;;;;;1.90;0.70;;;;;;;;;;10336691;28;20519;-79
2022/10/14 00:53:34;;;;;;;0.88;0.70;;;;;;;;;;10354637;28;20064;-81
2022/10/14 00:58:38;;;;;;;0.60;0.50;;;;;;;;;;10354116;28;20571;-81
2022/10/14 01:03:43;;;;;;;0.82;0.57;;;;;;;;;;10354558;28;20049;-77
2022/10/14 01:08:53;;;;;;;1.40;0.70;;;;;;;;;;10337006;28;20042;-78
2022/10/14 01:14:08;;;;;;;0.63;0.40;;;;;;;;;;10339482;28;20100;-78
2022/10/14 01:19:41;;;;;;;4.38;0.80;;;;;;;;;;10350266;28;20049;-78
2022/10/14 01:24:57;;;;;;;0.50;0.50;;;;;;;;;;10329833;28;20062;-79
2022/10/14 01:30:13;;;;;;;1.92;0.65;;;;;;;;;;10359632;28;20541;-79
2022/10/14 01:35:24;;;;;;;0.70;0.50;;;;;;;;;;10343016;28;20038;-79
2022/10/14 01:40:34;;;;;;;0.35;0.32;;;;;;;;;;10359332;28;20042;-81
2022/10/14 01:45:41;;;;;;;0.77;0.60;;;;;;;;;;10359017;28;20397;-78
2022/10/14 01:50:50;;;;;;;2.20;0.70;;;;;;;;;;10342531;28;20041;-79
2022/10/14 01:55:56;;;;;;;0.70;0.70;;;;;;;;;;10343377;28;20046;-77
2022/10/14 02:01:03;;;;;;;2.53;0.47;;;;;;;;;;10359861;28;20045;-78
2022/10/14 02:06:10;;;;;;;1.08;0.60;;;;;;;;;;10358972;28;20526;-79
2022/10/14 02:11:18;;;;;;;0.40;0.40;;;;;;;;;;10342844;28;20042;-82
2022/10/14 02:16:36;;;;;;;0.73;0.60;;;;;;;;;;10342055;28;20038;-81
2022/10/14 02:21:44;;;;;;;0.63;0.50;;;;;;;;;;10341713;28;20041;-78
2022/10/14 02:26:49;;;;;;;0.25;0.25;;;;;;;;;;10341260;28;20034;-77
2022/10/14 02:31:56;;;;;;;;;;;;;;;;;;10341493;28;20500;-78
2022/10/14 02:37:00;;;;;;;;;;;;;;;;;;10359437;28;19925;-78
2022/10/14 02:42:07;;;;;;;0.82;0.52;;;;;;;;;;10338889;28;19921;-78
2022/10/14 02:47:11;;;;;;;0.88;0.57;;;;;;;;;;10357500;28;20493;-77
2022/10/14 02:52:15;;;;;;;0.63;0.57;;;;;;;;;;10356169;28;20038;-78
2022/10/14 02:57:18;;;;;;;1.05;0.52;;;;;;;;;;10356804;28;20088;-81
2022/10/14 03:02:23;;;;;;;1.05;0.50;;;;;;;;;;10357526;28;20052;-78
2022/10/14 03:07:26;;;;;;;0.90;0.50;;;;;;;;;;10342536;28;20038;-78
2022/10/14 03:12:33;;;;;;;1.10;0.80;;;;;;;;;;10347664;28;20061;-78
2022/10/14 03:17:39;;;;;;;1.85;1.00;;;;;;;;;;10342436;28;20113;-79
2022/10/14 03:22:42;;;;;;;2.40;0.90;;;;;;;;;;10345629;28;20046;-77
2022/10/14 03:27:47;;;;;;;1.58;1.00;;;;;;;;;;10355520;28;20057;-77
2022/10/14 03:32:51;;;;;;;1.27;0.75;;;;;;;;;;10350343;28;20120;-79
2022/10/14 03:38:16;;;;;;;2.10;0.75;;;;;;;;;;10358926;28;20041;-77
2022/10/14 03:43:21;;;;;;;0.88;0.60;;;;;;;;;;10353617;28;20038;-78
2022/10/14 03:48:31;;;;;;;0.50;0.50;;;;;;;;;;10339024;28;20041;-78
2022/10/14 03:53:35;;;;;;;1.27;0.57;;;;;;;;;;10356584;28;20038;-76
2022/10/14 03:58:38;;;;;;;0.70;0.60;;;;;;;;;;10350215;28;20046;-79
2022/10/14 04:03:49;;;;;;;1.02;0.57;;;;;;;;;;10343769;28;20038;-78
2022/10/14 04:08:53;;;;;;;0.40;0.40;;;;;;;;;;10343370;28;20461;-79
2022/10/14 04:14:03;;;;;;;1.60;0.70;;;;;;;;;;10345561;28;20078;-81
2022/10/14 04:19:13;;;;;;;1.27;0.63;;;;;;;;;;10362072;28;20088;-79
2022/10/14 04:24:17;;;;;;;0.73;0.73;;;;;;;;;;10361761;28;20045;-78
2022/10/14 04:29:24;;;;;;;1.38;0.80;;;;;;;;;;10340591;28;20113;-77
2022/10/14 04:34:36;;;;;;;1.35;0.85;;;;;;;;;;10351675;28;20042;-77
2022/10/14 04:39:42;;;;;;;3.95;1.10;;;;;;;;;;10381879;28;20042;-79
2022/10/14 04:44:46;;;;;;;1.38;1.17;;;;;;;;;;10365563;28;20069;-78
2022/10/14 04:49:52;;;;;;;1.80;1.10;;;;;;;;;;10359678;28;20070;-79
2022/10/14 04:54:56;;;;;;;1.20;1.10;;;;;;;;;;10358853;28;20585;-79
2022/10/14 05:00:11;;;;;;;1.83;1.40;;;;;;;;;;10357919;28;20042;-77
2022/10/14 05:05:38;;;;;;;2.15;1.17;;;;;;;;;;10349783;28;20041;-80
2022/10/14 05:10:42;;;;;;;1.52;1.42;;;;;;;;;;10367440;28;20112;-79
2022/10/14 05:15:53;;;;;;;3.70;1.50;;;;;;;;;;10355538;28;20038;-80
2022/10/14 05:20:59;;;;;;;1.92;1.40;;;;;;;;;;10356362;28;20052;-78
2022/10/14 05:26:16;;;;;;;3.67;1.70;;;;;;;;;;10354843;28;20052;-80
2022/10/14 05:31:20;;;;;;;3.10;2.00;;;;;;;;;;10375196;28;20042;-81
2022/10/14 05:36:34;;;;;;;2.00;1.80;;;;;;;;;;10370461;28;20112;-81
2022/10/14 05:41:38;;;;;;;1.60;1.38;;;;;;;;;;10369461;28;20042;-76
2022/10/14 05:46:42;;;;;;;1.80;1.58;;;;;;;;;;10348786;28;20092;-79
2022/10/14 05:51:47;;;;;;;2.33;1.50;;;;;;;;;;10348444;28;20045;-79
2022/10/14 05:56:57;;;;;;;2.63;1.92;;;;;;;;;;10349907;28;20081;-79
2022/10/14 06:02:01;;;;;;;2.55;1.67;;;;;;;;;;10365747;28;20402;-80
2022/10/14 06:07:05;;;;;;;2.55;1.70;;;;;;;;;;10365782;28;20038;-79
2022/10/14 06:12:11;;;;;;;4.93;2.00;;;;;;;;;;10346010;28;20045;-78
2022/10/14 06:17:15;;;;;;;2.30;2.00;;;;;;;;;;10365451;28;20046;-79
2022/10/14 06:22:21;;;;;;;4.50;2.87;;;;;;;;;;10364383;28;20092;-79
2022/10/14 06:27:28;;;;;;;6.97;2.88;;;;;;;;;;10364287;28;20049;-80
2022/10/14 06:32:31;;;;;;;4.25;2.78;;;;;;;;;;10373416;28;20052;-80
2022/10/14 06:37:36;;;;;;;3.88;3.15;;;;;;;;;;10375310;28;20505;-81
2022/10/14 06:42:40;;;;;;;4.82;3.28;;;;;;;;;;10378293;28;20129;-79
2022/10/14 06:47:44;;;;;;;5.90;3.80;;;;;;;;;;10361813;28;20045;-79
2022/10/14 06:52:48;;;;;;;4.72;3.42;;;;;;;;;;10359081;28;20129;-79
2022/10/14 06:57:52;;;;;;;5.85;3.72;;;;;;;;;;10371251;28;20050;-77
2022/10/14 07:02:57;;;;;;;4.97;4.13;;;;;;;;;;10380316;28;20722;-78
2022/10/14 07:08:05;;;;;;;4.68;3.38;;;;;;;;;;10379014;28;20077;-78
2022/10/14 07:13:08;;;;;;;4.43;3.45;;;;;;;;;;10383915;28;20545;-79
2022/10/14 07:18:12;;;;;;;5.22;3.53;;;;;;;;;;10379213;28;20038;-81
2022/10/14 07:23:17;;;;;;;5.35;3.63;;;;;;;;;;10370366;28;20052;-80
2022/10/14 07:28:20;;;;;;;3.97;2.92;;;;;;;;;;10357845;28;20073;-81
2022/10/14 07:33:24;;;;;;;4.57;3.20;;;;;;;;;;10358564;28;20097;-79
2022/10/14 07:38:28;;;;;;;4.10;2.90;;;;;;;;;;10378444;28;20061;-80
2022/10/14 07:43:32;;;;;;;4.10;2.85;;;;;;;;;;10382273;28;20097;-77
2022/10/14 07:48:36;;;;;;;3.55;2.70;;;;;;;;;;10364136;28;20722;-80
2022/10/14 07:53:49;;;;;;;3.70;2.80;;;;;;;;;;10377062;28;20050;-79
2022/10/14 07:58:52;;;;;;;5.38;4.00;;;;;;;;;;10359355;28;20061;-80
2022/10/14 08:03:56;;;;;;;4.85;3.30;;;;;;;;;;10377456;28;20054;-81
2022/10/14 08:09:00;;;;;;;4.18;3.35;;;;;;;;;;10396152;28;20073;-79
2022/10/14 08:14:04;;;;;;;4.03;2.80;;;;;;;;;;10384457;28;20046;-79
2022/10/14 08:19:10;;;;;;;4.22;2.58;;;;;;;;;;10371205;28;20402;-78
2022/10/14 08:24:18;;;;;;;5.53;3.70;;;;;;;;;;10391007;28;20069;-81
2022/10/14 08:29:22;;;;;;;4.38;2.78;;;;;;;;;;10373849;28;20128;-82
2022/10/14 08:34:26;;;;;;;4.50;2.75;;;;;;;;;;10383623;28;20183;-80
2022/10/14 08:39:31;;;;;;;3.42;2.78;;;;;;;;;;10394555;28;20049;-78
2022/10/14 08:44:41;;;;;;;3.92;2.70;;;;;;;;;;10397324;28;20169;-79
2022/10/14 08:49:55;;;;;;;3.05;2.20;;;;;;;;;;10383964;28;20057;-81
2022/10/14 08:55:03;;;;;;;3.88;2.17;;;;;;;;;;10389096;28;20054;-79
2022/10/14 09:00:10;;;;;;;3.38;2.80;;;;;;;;;;10390711;28;20182;-81
2022/10/14 09:05:15;;;;;;;5.60;3.30;;;;;;;;;;10375035;28;20049;-82
2022/10/14 09:10:30;;;;;;;6.20;3.17;;;;;;;;;;10363357;28;20072;-79
2022/10/14 09:15:38;;;;;;;8.15;2.85;;;;;;;;;;10365826;28;20110;-78
2022/10/14 09:20:42;;;;;;;5.35;2.45;;;;;;;;;;10359075;28;20042;-81
2022/10/14 09:25:55;;;;;;;4.30;2.95;;;;;;;;;;10355796;28;20168;-81
2022/10/14 09:30:58;;;;;;;5.50;3.17;;;;;;;;;;10365667;28;20137;-78
2022/10/14 09:36:01;;;;;;;4.35;2.60;;;;;;;;;;10380524;28;20045;-82
2022/10/14 09:41:12;;;;;;;5.15;3.03;;;;;;;;;;10364792;28;20061;-77
2022/10/14 09:46:18;;;;;;;3.97;2.58;;;;;;;;;;10377776;28;20402;-78
2022/10/14 09:51:24;;;;;;;4.00;2.67;;;;;;;;;;10379593;28;20099;-75
2022/10/14 09:56:33;;;;;;;4.80;2.30;;;;;;;;;;10383002;28;20038;-79
2022/10/14 10:01:41;;;;;;;2.83;2.50;;;;;;;;;;10375909;28;20444;-78
2022/10/14 10:06:52;;;;;;;3.17;2.17;;;;;;;;;;10375312;28;20145;-78
2022/10/14 10:11:57;;;;;;;5.05;2.40;;;;;;;;;;10359370;28;20058;-77
2022/10/14 10:17:17;;;;;;;4.50;2.35;;;;;;;;;;10359581;28;20049;-79
2022/10/14 10:22:26;;;;;;;2.45;1.63;;;;;;;;;;10382940;28;20509;-78
2022/10/14 10:27:34;;;;;;;2.03;1.55;;;;;;;;;;10356879;28;20073;-79
2022/10/14 10:32:43;;;;;;;2.90;1.90;;;;;;;;;;10351958;28;20042;-78
2022/10/14 10:37:59;;;;;;;1.98;1.75;;;;;;;;;;10373168;28;20532;-77
2022/10/14 10:43:27;;;;;;;2.00;1.25;;;;;;;;;;10357203;28;20125;-77
2022/10/14 10:48:39;;;;;;;2.95;1.08;;;;;;;;;;10366084;28;20133;-82
2022/10/14 10:53:54;;;;;;;1.50;1.35;;;;;;;;;;10376509;28;20069;-80
2022/10/14 10:59:29;;;;;;;2.25;1.20;;;;;;;;;;10376564;28;20034;-79
2022/10/14 11:04:41;;;;;;;2.15;1.10;;;;;;;;;;10356477;28;20097;-76
2022/10/14 11:15:31;;;;;;;2.15;1.10;;;;;;;;;;10367866;28;20041;-80
2022/10/14 11:20:46;;;;;;;1.65;1.38;;;;;;;;;;10368429;28;20034;-81
2022/10/14 11:25:55;;;;;;;1.67;1.40;;;;;;;;;;10377581;28;20056;-76
2022/10/14 11:31:07;;;;;;;2.20;1.27;;;;;;;;;;10348148;28;20041;-81
2022/10/14 11:36:19;;;;;;;3.60;1.23;;;;;;;;;;10365468;28;20052;-81
2022/10/14 11:41:32;;;;;;;2.67;1.40;;;;;;;;;;10346204;28;20042;-81
2022/10/14 11:46:41;;;;;;;2.00;1.15;;;;;;;;;;10361919;28;20049;-77
2022/10/14 11:51:51;;;;;;;3.58;1.55;;;;;;;;;;10342919;28;20030;-82
2022/10/14 11:57:00;;;;;;;3.42;1.45;;;;;;;;;;10359938;28;20081;-79
2022/10/14 12:02:20;;;;;;;1.98;1.05;;;;;;;;;;10357261;28;20049;-78
2022/10/14 12:07:27;;;;;;;1.23;1.00;;;;;;;;;;10356709;28;20070;-79
2022/10/14 12:12:32;;;;;;;1.35;0.80;;;;;;;;;;10360488;28;20589;-80
2022/10/14 12:17:43;;;;;;;3.45;1.15;;;;;;;;;;10359645;28;20034;-80
2022/10/14 12:22:49;;;;;;;1.80;1.02;;;;;;;;;;10360261;28;20099;-79
2022/10/14 12:27:54;;;;;;;1.30;0.93;;;;;;;;;;10358725;28;20045;-80
2022/10/14 12:33:04;;;;;;;1.80;1.20;;;;;;;;;;10358797;28;20494;-80
2022/10/14 12:38:12;;;;;;;0.70;0.70;;;;;;;;;;10373919;28;20058;-80
2022/10/14 12:43:25;;;;;;;4.32;2.65;;;;;;;;;;10346328;28;20065;-80
2022/10/14 12:48:32;;;;;;;2.67;1.90;;;;;;;;;;10358524;28;20061;-80
2022/10/14 12:53:39;;;;;;;2.60;1.63;;;;;;;;;;10325307;28;20046;-80
2022/10/14 12:58:54;;;;;;;3.05;1.30;;;;;;;;;;10333327;28;20077;-81
2022/10/14 13:04:01;;;;;;;1.27;0.90;;;;;;;;;;10330397;28;20129;-79
2022/10/14 13:09:34;;;;;;;2.85;1.70;;;;;;;;;;10308182;28;20126;-80
2022/10/14 13:14:57;;;;;;;1.83;1.00;;;;;;;;;;10330767;28;20578;-79
2022/10/14 13:20:03;;;;;;;1.92;1.20;;;;;;;;;;10320649;28;20042;-81
2022/10/14 13:25:20;;;;;;;1.27;0.93;;;;;;;;;;10326007;28;20458;-80
2022/10/14 13:30:32;;;;;;;2.00;1.13;;;;;;;;;;10325873;28;20034;-80
2022/10/14 13:35:50;;;;;;;0.90;0.80;;;;;;;;;;10321388;28;20130;-81
2022/10/14 13:40:56;;;;;;;0.65;0.57;;;;;;;;;;10312502;28;20130;-81
2022/10/14 13:46:05;;;;;;;1.20;0.60;;;;;;;;;;10343415;28;20056;-80
2022/10/14 13:51:31;;;;;;;0.35;0.35;;;;;;;;;;10326553;28;20061;-81
2022/10/14 13:56:39;;;;;;;0.50;0.50;;;;;;;;;;10357704;28;20042;-79
2022/10/14 14:01:42;;;;;;;0.50;0.50;;;;;;;;;;10360720;28;20034;-80
2022/10/14 14:06:47;;;;;;;0.47;0.40;;;;;;;;;;10340839;28;20720;-80
2022/10/14 14:11:57;;;;;;;1.05;0.40;;;;;;;;;;10347310;28;20509;-80
2022/10/14 14:17:02;;;;;;;0.45;0.45;;;;;;;;;;10347376;28;20061;-80
2022/10/14 14:22:13;;;;;;;1.02;0.55;;;;;;;;;;10363922;28;20050;-80
2022/10/14 14:27:20;;;;;;;0.63;0.43;;;;;;;;;;10378323;28;20042;-80
2022/10/14 14:32:28;;;;;;;0.50;0.38;;;;;;;;;;10364023;28;20403;-80
2022/10/14 14:37:35;;;;;;;0.43;0.43;;;;;;;;;;10369182;28;20693;-80
2022/10/14 14:42:53;;;;;;;0.47;0.47;;;;;;;;;;10390018;28;20041;-80
2022/10/14 14:47:57;;;;;;;;;;;;;;;;;;10384450;28;20073;-79
2022/10/14 14:53:04;;;;;;;0.30;0.30;;;;;;;;;;10363351;28;19963;-79
2022/10/14 14:58:23;;;;;;;0.55;0.40;;;;;;;;;;10363316;28;20528;-80
2022/10/14 15:03:29;;;;;;;0.88;0.40;;;;;;;;;;10377424;28;20073;-79
2022/10/14 15:08:36;;;;;;;0.50;0.32;;;;;;;;;;10362648;28;20623;-79
2022/10/14 15:13:48;;;;;;;0.45;0.40;;;;;;;;;;10360308;28;20454;-80
2022/10/14 15:19:12;;;;;;;0.60;0.40;;;;;;;;;;10364138;28;20077;-80
2022/10/14 15:24:18;;;;;;;0.40;0.40;;;;;;;;;;10362655;28;20042;-80
2022/10/14 15:29:23;;;;;;;0.47;0.40;;;;;;;;;;10376628;28;20038;-80
2022/10/14 15:34:28;;;;;;;0.60;0.30;;;;;;;;;;10376567;28;20546;-79
2022/10/14 15:39:34;;;;;;;0.43;0.30;;;;;;;;;;10344917;28;20855;-80
2022/10/14 15:44:37;;;;;;;0.25;0.25;;;;;;;;;;10345999;28;20052;-79
2022/10/14 15:49:42;;;;;;;0.45;0.40;;;;;;;;;;10361984;28;20041;-80
2022/10/14 15:54:47;;;;;;;0.65;0.47;;;;;;;;;;10376698;28;20614;-79
2022/10/14 15:59:52;;;;;;;0.60;0.50;;;;;;;;;;10361727;28;20133;-80
2022/10/14 16:05:00;;;;;;;0.82;0.73;;;;;;;;;;10361886;28;20038;-80
2022/10/14 16:10:26;;;;;;;0.95;0.75;;;;;;;;;;10375581;28;20705;-80
2022/10/14 16:15:34;;;;;;;1.02;0.63;;;;;;;;;;10359447;28;20133;-80
2022/10/14 16:20:37;;;;;;;0.82;0.70;;;;;;;;;;10359838;28;20098;-79
2022/10/14 16:25:45;;;;;;;0.65;0.43;;;;;;;;;;10361156;28;20045;-79
2022/10/14 16:30:53;;;;;;;0.30;0.30;;;;;;;;;;10360823;28;20038;-80
2022/10/14 16:35:58;;;;;;;0.32;0.30;;;;;;;;;;10376520;28;20066;-80
2022/10/14 16:41:03;;;;;;;0.57;0.40;;;;;;;;;;10374942;28;20088;-79
2022/10/14 16:46:07;;;;;;;1.10;0.50;;;;;;;;;;10359261;28;20125;-79
2022/10/14 16:51:11;;;;;;;0.80;0.50;;;;;;;;;;10340037;28;20045;-80
2022/10/14 17:01:39;;;;;;;0.75;0.60;;;;;;;;;;10357131;28;20067;-79
2022/10/14 17:06:48;;;;;;;2.67;0.55;;;;;;;;;;10350011;28;20068;-79
2022/10/14 17:11:54;;;;;;;0.47;0.33;;;;;;;;;;10382657;28;20049;-80
2022/10/14 17:16:58;;;;;;;0.50;0.50;;;;;;;;;;10349005;28;20068;-79
2022/10/14 17:22:02;;;;;;;0.22;0.22;;;;;;;;;;10344654;28;20077;-79
2022/10/14 17:27:07;;;;;;;0.70;0.52;;;;;;;;;;10382277;28;20046;-79
2022/10/14 17:32:10;;;;;;;0.73;0.40;;;;;;;;;;10368647;28;20038;-79
2022/10/14 17:37:14;;;;;;;0.40;0.32;;;;;;;;;;10383315;28;20042;-79
2022/10/14 17:42:19;;;;;;;0.40;0.40;;;;;;;;;;10368484;28;20401;-79
2022/10/14 17:47:26;;;;;;;0.30;0.30;;;;;;;;;;10367897;28;20457;-79
2022/10/14 17:52:29;;;;;;;1.25;0.52;;;;;;;;;;10367261;28;20034;-79
2022/10/14 17:57:36;;;;;;;0.30;0.30;;;;;;;;;;10349735;28;20053;-80
2022/10/14 18:02:39;;;;;;;0.20;0.20;;;;;;;;;;10358589;28;20054;-80
2022/10/14 18:07:43;;;;;;;0.30;0.30;;;;;;;;;;10365613;28;20046;-80
2022/10/14 18:12:47;;;;;;;0.30;0.30;;;;;;;;;;10365928;28;20052;-80
2022/10/14 18:17:51;;;;;;;0.68;0.30;;;;;;;;;;10365391;28;20052;-79
2022/10/14 18:22:54;;;;;;;0.20;0.20;;;;;;;;;;10365243;28;20073;-80
2022/10/14 18:27:59;;;;;;;0.88;0.30;;;;;;;;;;10366765;28;20045;-81
2022/10/14 18:33:05;;;;;;;0.47;0.38;;;;;;;;;;10365671;28;20045;-80
2022/10/14 18:38:09;;;;;;;0.40;0.30;;;;;;;;;;10365087;28;20046;-80
2022/10/14 18:43:14;;;;;;;0.35;0.35;;;;;;;;;;10365634;28;20041;-81
2022/10/14 18:48:20;;;;;;;0.50;0.50;;;;;;;;;;10365232;28;20076;-80
2022/10/14 18:53:24;;;;;;;1.05;0.60;;;;;;;;;;10368504;28;20045;-80
2022/10/14 18:58:30;;;;;;;0.40;0.40;;;;;;;;;;10350862;28;20430;-80
2022/10/14 19:03:38;;;;;;;0.65;0.55;;;;;;;;;;10366887;28;20037;-80
2022/10/14 19:08:44;;;;;;;0.70;0.50;;;;;;;;;;10357741;28;20052;-80
2022/10/14 19:13:50;;;;;;;0.50;0.40;;;;;;;;;;10346859;28;20049;-81
2022/10/14 19:18:54;;;;;;;;;;;;;;;;;;10364288;28;20625;-81
2022/10/14 19:23:58;;;;;;;0.40;0.30;;;;;;;;;;10378873;28;20415;-82
2022/10/14 19:29:05;;;;;;;0.45;0.40;;;;;;;;;;10347040;28;20045;-81
2022/10/14 19:34:13;;;;;;;0.73;0.40;;;;;;;;;;10347171;28;20080;-81
2022/10/14 19:39:18;;;;;;;0.35;0.35;;;;;;;;;;10346367;28;20046;-81
2022/10/14 19:44:23;;;;;;;0.65;0.52;;;;;;;;;;10376821;28;20054;-81
2022/10/14 19:49:27;;;;;;;0.80;0.40;;;;;;;;;;10349680;28;20048;-81
2022/10/14 19:54:31;;;;;;;0.40;0.35;;;;;;;;;;10366923;28;20045;-81
2022/10/14 19:59:35;;;;;;;0.47;0.32;;;;;;;;;;10366023;28;20050;-79
2022/10/14 20:04:39;;;;;;;0.40;0.40;;;;;;;;;;10347717;28;20049;-80
2022/10/14 20:09:42;;;;;;;0.85;0.63;;;;;;;;;;10357634;28;20748;-80
2022/10/14 20:14:47;;;;;;;0.73;0.30;;;;;;;;;;10382700;28;20046;-80
2022/10/14 20:19:51;;;;;;;0.47;0.35;;;;;;;;;;10365600;28;20117;-81
2022/10/14 20:24:54;;;;;;;0.88;0.50;;;;;;;;;;10380532;28;20088;-81
2022/10/14 20:29:59;;;;;;;0.40;0.40;;;;;;;;;;10347641;28;20080;-81
2022/10/14 20:35:02;;;;;;;0.43;0.43;;;;;;;;;;10347035;28;20038;-80
2022/10/14 20:40:07;;;;;;;1.13;0.40;;;;;;;;;;10346586;28;20042;-80
2022/10/14 20:45:13;;;;;;;;;;;;;;;;;;10348029;28;20041;-81
2022/10/14 20:50:17;;;;;;;0.55;0.30;;;;;;;;;;10379313;28;19953;-80
2022/10/14 20:55:21;;;;;;;1.85;0.40;;;;;;;;;;10381769;28;20105;-80
2022/10/14 21:00:28;;;;;;;0.30;0.30;;;;;;;;;;10366626;28;20046;-80
2022/10/14 21:05:35;;;;;;;0.20;0.20;;;;;;;;;;10363908;28;20417;-80
2022/10/14 21:10:38;;;;;;;0.80;0.40;;;;;;;;;;10362823;28;20045;-80
2022/10/14 21:15:43;;;;;;;0.52;0.30;;;;;;;;;;10344928;28;20046;-81
2022/10/14 21:20:47;;;;;;;0.25;0.25;;;;;;;;;;10361474;28;20077;-80
2022/10/14 21:25:55;;;;;;;0.30;0.30;;;;;;;;;;10344719;28;20046;-80
2022/10/14 21:31:00;;;;;;;1.90;0.25;;;;;;;;;;10357933;28;20559;-80
2022/10/14 21:36:06;;;;;;;0.20;0.20;;;;;;;;;;10343488;28;20961;-80
2022/10/14 21:41:09;;;;;;;1.07;0.40;;;;;;;;;;10362930;28;20077;-79
2022/10/14 21:46:16;;;;;;;0.20;0.20;;;;;;;;;;10346456;28;20097;-79
2022/10/14 21:51:20;;;;;;;0.55;0.30;;;;;;;;;;10369755;28;20088;-80
2022/10/14 21:56:24;;;;;;;0.35;0.30;;;;;;;;;;10353562;28;20034;-81
2022/10/14 22:01:30;;;;;;;0.20;0.20;;;;;;;;;;10377364;28;20069;-80
2022/10/14 22:06:35;;;;;;;0.60;0.20;;;;;;;;;;10394423;28;20132;-81
2022/10/14 22:11:40;;;;;;;0.20;0.20;;;;;;;;;;10374748;28;20129;-80
2022/10/14 22:16:45;;;;;;;0.20;0.20;;;;;;;;;;10377775;28;20105;-81
2022/10/14 22:21:49;;;;;;;0.22;0.20;;;;;;;;;;10373972;28;20041;-81
2022/10/14 22:26:52;;;;;;;2.05;0.30;;;;;;;;;;10369936;28;20046;-80
2022/10/14 22:31:57;;;;;;;0.60;0.30;;;;;;;;;;10369114;28;20072;-80
2022/10/14 22:37:00;;;;;;;0.20;0.20;;;;;;;;;;10382837;28;20129;-80
2022/10/14 22:42:04;;;;;;;0.28;0.20;;;;;;;;;;10366945;28;20045;-81
2022/10/14 22:47:09;;;;;;;0.17;0.17;;;;;;;;;;10382162;28;20466;-81
2022/10/14 22:52:12;;;;;;;0.20;0.20;;;;;;;;;;10364681;28;20124;-81
2022/10/14 22:57:15;;;;;;;0.20;0.20;;;;;;;;;;10363541;28;20050;-80
2022/10/14 23:02:20;;;;;;;0.20;0.20;;;;;;;;;;10345749;28;20126;-80
2022/10/14 23:07:24;;;;;;;0.20;0.20;;;;;;;;;;10346270;28;20092;-80
2022/10/14 23:12:27;;;;;;;0.30;0.28;;;;;;;;;;10346537;28;20129;-81
2022/10/14 23:17:32;;;;;;;0.20;0.20;;;;;;;;;;10363364;28;20104;-80
2022/10/14 23:22:36;;;;;;;0.20;0.20;;;;;;;;;;10353110;28;20632;-80
2022/10/14 23:27:39;;;;;;;0.10;0.10;;;;;;;;;;10362018;28;20038;-80
2022/10/14 23:32:44;;;;;;;0.10;0.10;;;;;;;;;;10361320;28;20514;-81
2022/10/14 23:37:48;;;;;;;0.10;0.10;;;;;;;;;;10343788;28;20056;-81
2022/10/14 23:42:51;;;;;;;0.52;0.20;;;;;;;;;;10343409;28;20359;-81
2022/10/14 23:47:56;;;;;;;0.10;0.10;;;;;;;;;;10343431;28;20110;-80
2022/10/14 23:53:00;;;;;;;0.10;0.10;;;;;;;;;;10361817;28;20042;-81
2022/10/14 23:58:03;;;;;;;0.40;0.25;;;;;;;;;;10361036;28;20050;-80
